Significant Other — WDB7278 — position and weather

sailwx.info

Track history (hours):
 
Tides and Currents Weather Stations Pressure Air Temp Water Temp Dewpoint Dewpoint Depression Visibility Wind Speed Wind Dir Waves Ship Positions

Significant Other

More information available from US FCC via Universal Licensing System and Coast Guard Vessel Documentation Center.

Last reported at 2014-Sep-07 18:22 UTC. Time now 2014-Sep-21 22:17 UTC.
Position N 47°35' W 122°35'.
Warning: this ship's position is 14 days out of date.

Length 13 m; draft 2 m.

Type: Sailing vessel. MMSI: 366896730.

Date/timePositionNaut miles runAvg speedWind from/ knotsBaromVisibWave heightAir tempDewpointWater temp
2014-Sep-07 18:22N 47°35' W 122°35'2 0.1
2014-Sep-07 03:19N 47°33' W 122°32'0 0.0
2014-Sep-07 02:31N 47°33' W 122°32'0 0.0
2014-Sep-07 01:31N 47°33' W 122°32'0 0.0
2014-Sep-07 00:31N 47°33' W 122°32'0 0.0
2014-Sep-06 23:31N 47°33' W 122°32'0 0.3
2014-Sep-06 22:33N 47°33' W 122°32'1 1.0
2014-Sep-06 21:31N 47°34' W 122°31'1 0.6
2014-Sep-06 20:31N 47°34' W 122°32'0 0.5
2014-Sep-06 19:33N 47°33' W 122°32'2 2.3
2014-Sep-06 18:32N 47°33' W 122°29'0 0.0
2014-Sep-06 03:24N 47°33' W 122°29'4 3.2
2014-Sep-06 02:13N 47°35' W 122°33'2 3.4
2014-Sep-06 01:33N 47°34' W 122°36'  
Track history (hours):
 
Tides and Currents Weather Stations Pressure Air Temp Water Temp Dewpoint Dewpoint Depression Visibility Wind Speed Wind Dir Waves Ship Positions

Significant Other

More information available from US FCC via Universal Licensing System and Coast Guard Vessel Documentation Center.

Last reported at 2014-Sep-07 18:22 UTC. Time now 2014-Sep-21 22:17 UTC.
Position N 47°35' W 122°35'.
Warning: this ship's position is 14 days out of date.

Length 13 m; draft 2 m.

Type: Sailing vessel. MMSI: 366896730.

Date/timePositionNaut miles runAvg speedWind from/ knotsBaromVisibWave heightAir tempDewpointWater temp
2014-Sep-07 18:22N 47°35' W 122°35'2 0.1
2014-Sep-07 03:19N 47°33' W 122°32'0 0.0
2014-Sep-07 02:31N 47°33' W 122°32'0 0.0
2014-Sep-07 01:31N 47°33' W 122°32'0 0.0
2014-Sep-07 00:31N 47°33' W 122°32'0 0.0
2014-Sep-06 23:31N 47°33' W 122°32'0 0.3
2014-Sep-06 22:33N 47°33' W 122°32'1 1.0
2014-Sep-06 21:31N 47°34' W 122°31'1 0.6
2014-Sep-06 20:31N 47°34' W 122°32'0 0.5
2014-Sep-06 19:33N 47°33' W 122°32'2 2.3
2014-Sep-06 18:32N 47°33' W 122°29'0 0.0
2014-Sep-06 03:24N 47°33' W 122°29'4 3.2
2014-Sep-06 02:13N 47°35' W 122°33'2 3.4
2014-Sep-06 01:33N 47°34' W 122°36'  

Dump ship's entire track history